Time;durP1;ratioP1;P1;durP2;ratioP2;P2;SDS_P1;SDS_P2;PMS_P1;PMS_P2;Temp;Humidity;BMP_temperature;BMP_pressure;BME280_temperature;BME280_humidity;BME280_pressure;Samples;Min_cycle;Max_cycle;Signal;HPM_P1;HPM_P2
2023/01/27 00:02:23;;;;;;;6.63;4.90;;;;;;;2.26;62.92;94121.16;5070423;28;20120;-78
2023/01/27 00:04:49;;;;;;;6.32;3.50;;;;;;;2.26;62.86;94111.06;5065444;28;20495;-77
2023/01/27 00:07:14;;;;;;;6.53;4.47;;;;;;;2.22;62.92;94117.72;5063691;28;20121;-77
2023/01/27 00:09:40;;;;;;;6.13;4.22;;;;;;;2.25;62.77;94125.81;5066069;28;20048;-78
2023/01/27 00:14:53;;;;;;;4.85;3.25;;;;;;;2.13;63.13;94101.91;5054347;28;20032;-79
2023/01/27 00:17:18;;;;;;;5.97;3.60;;;;;;;2.10;63.34;94110.84;5062232;28;20044;-78
2023/01/27 00:19:43;;;;;;;5.38;3.58;;;;;;;2.09;63.38;94110.09;5064370;28;20035;-77
2023/01/27 00:24:52;;;;;;;;;;;;;;;2.21;63.22;94089.06;5063578;28;20060;-77
2023/01/27 00:27:18;;;;;;;6.22;3.47;;;;;;;2.14;63.37;94068.22;5064572;28;19916;-78
2023/01/27 00:29:43;;;;;;;4.70;3.53;;;;;;;2.15;63.31;94079.81;5063032;28;20021;-79
2023/01/27 00:34:53;;;;;;;6.15;4.28;;;;;;;2.03;63.63;94086.53;5064818;28;20107;-78
2023/01/27 00:37:19;;;;;;;6.60;3.75;;;;;;;2.08;63.67;94078.72;5062937;28;20540;-77
2023/01/27 00:39:44;;;;;;;5.95;4.45;;;;;;;2.05;63.64;94081.47;5064525;28;20023;-79
2023/01/27 00:42:10;;;;;;;5.70;3.35;;;;;;;2.08;63.81;94086.84;5062842;28;20434;-78
2023/01/27 00:44:35;;;;;;;6.72;3.97;;;;;;;2.12;63.63;94084.88;5064997;28;20058;-77
2023/01/27 00:47:01;;;;;;;5.90;3.70;;;;;;;2.14;63.61;94070.91;5063113;28;20402;-79
2023/01/27 00:49:26;;;;;;;5.68;3.72;;;;;;;2.17;63.41;94078.22;5062851;28;20503;-77
2023/01/27 00:51:53;;;;;;;6.28;3.88;;;;;;;2.20;63.43;94093.72;5064021;28;20054;-77
2023/01/27 00:54:19;;;;;;;9.32;4.10;;;;;;;2.21;63.61;94097.94;5063193;28;20027;-77
2023/01/27 00:56:44;;;;;;;6.18;4.75;;;;;;;2.21;63.50;94086.34;5069751;28;20126;-80
2023/01/27 00:59:10;;;;;;;6.00;4.32;;;;;;;2.28;63.33;94086.25;5062840;28;20103;-78
2023/01/27 01:01:36;;;;;;;7.30;4.60;;;;;;;2.28;63.14;94086.25;5064574;28;20106;-77
2023/01/27 01:04:02;;;;;;;9.20;5.32;;;;;;;2.29;63.10;94077.72;5062349;28;20431;-79
2023/01/27 01:06:28;;;;;;;8.23;4.57;;;;;;;2.30;63.31;94081.97;5062446;28;20024;-76
2023/01/27 01:08:55;;;;;;;7.75;5.60;;;;;;;2.33;63.23;94081.16;5061547;28;20410;-79
2023/01/27 01:11:21;;;;;;;10.02;5.03;;;;;;;2.30;63.46;94075.78;5062155;28;20041;-78
2023/01/27 01:13:47;;;;;;;8.05;5.53;;;;;;;2.32;63.25;94076.91;5065126;28;20556;-78
2023/01/27 01:16:18;;;;;;;9.43;5.63;;;;;;;2.33;62.89;94075.72;5064651;28;20028;-78
2023/01/27 01:18:44;;;;;;;11.30;6.80;;;;;;;2.26;63.35;94080.47;5066040;28;20124;-77
2023/01/27 01:21:10;;;;;;;10.40;6.57;;;;;;;2.31;63.14;94088.94;5064218;28;20159;-76
2023/01/27 01:23:42;;;;;;;11.35;6.95;;;;;;;2.30;63.10;94087.41;5063234;28;20059;-77
2023/01/27 01:26:10;;;;;;;10.90;6.57;;;;;;;2.28;63.32;94083.53;5067794;28;20033;-79
2023/01/27 01:28:35;;;;;;;11.52;6.78;;;;;;;2.23;63.43;94092.88;5066082;28;20033;-78
2023/01/27 01:31:12;;;;;;;10.90;6.55;;;;;;;2.21;63.30;94072.78;5067111;28;20039;-79
2023/01/27 01:33:38;;;;;;;7.63;5.78;;;;;;;2.25;63.36;94074.28;5066350;28;20532;-77
2023/01/27 01:36:08;;;;;;;8.35;5.22;;;;;;;2.35;63.00;94086.16;5067407;28;20024;-78
2023/01/27 01:38:34;;;;;;;8.40;5.18;;;;;;;2.35;63.11;94095.09;5048234;28;20380;-78
2023/01/27 01:40:59;;;;;;;8.77;4.68;;;;;;;2.32;63.01;94093.19;5049316;28;20033;-79
2023/01/27 01:43:26;;;;;;;7.35;4.35;;;;;;;2.29;63.17;94091.28;5066763;28;20062;-78
2023/01/27 01:45:56;;;;;;;6.85;3.88;;;;;;;2.28;63.32;94094.41;5067222;28;20052;-79
2023/01/27 01:48:39;;;;;;;11.00;4.97;;;;;;;2.24;63.35;94099.88;5066170;28;20111;-78
2023/01/27 01:51:21;;;;;;;5.60;3.47;;;;;;;2.23;63.35;94097.53;5048617;28;20024;-78
2023/01/27 01:53:52;;;;;;;4.95;3.42;;;;;;;2.27;63.01;94098.28;5069508;28;20032;-77
2023/01/27 01:56:23;;;;;;;5.47;3.50;;;;;;;2.25;63.21;94087.09;5066767;28;20040;-79
2023/01/27 01:58:48;;;;;;;6.70;4.15;;;;;;;2.19;62.92;94075.91;5065892;28;20613;-77
2023/01/27 02:01:15;;;;;;;5.82;3.90;;;;;;;2.28;63.16;94078.13;5067130;28;20064;-79
2023/01/27 02:03:43;;;;;;;7.65;4.28;;;;;;;2.24;63.12;94067.31;5064822;28;20098;-79
2023/01/27 02:06:09;;;;;;;5.78;3.92;;;;;;;2.33;63.29;94080.38;5065727;28;20025;-79
2023/01/27 02:08:41;;;;;;;7.43;4.55;;;;;;;2.32;63.41;94068.78;5065060;28;20044;-79
2023/01/27 02:11:08;;;;;;;8.27;4.30;;;;;;;2.32;63.51;94057.16;5067850;28;20032;-78
2023/01/27 02:13:33;;;;;;;7.18;4.32;;;;;;;2.26;63.46;94050.66;5066727;28;20057;-79
2023/01/27 02:15:59;;;;;;;6.30;4.28;;;;;;;2.14;63.78;94041.09;5066734;28;20029;-80
2023/01/27 02:18:25;;;;;;;6.95;4.20;;;;;;;2.17;63.77;94039.50;5066091;28;20047;-79
2023/01/27 02:20:53;;;;;;;7.05;4.80;;;;;;;2.06;64.07;94024.13;5064934;28;20032;-77
2023/01/27 02:23:40;;;;;;;5.82;3.92;;;;;;;2.04;64.34;94026.47;5066099;28;20036;-77
2023/01/27 02:26:28;;;;;;;6.63;4.03;;;;;;;2.05;64.45;94014.44;5066523;28;20033;-77
2023/01/27 02:28:59;;;;;;;6.28;3.65;;;;;;;2.04;64.37;94007.50;5065154;28;20043;-79
2023/01/27 02:31:25;;;;;;;5.55;3.53;;;;;;;1.97;64.44;94013.00;5071560;28;20039;-78
2023/01/27 02:33:52;;;;;;;5.60;3.15;;;;;;;1.91;65.05;94013.84;5073513;28;20025;-79
2023/01/27 02:36:18;;;;;;;5.57;3.70;;;;;;;1.87;65.14;94019.28;5065325;28;20035;-78
2023/01/27 02:38:48;;;;;;;5.50;3.53;;;;;;;1.85;65.53;94022.41;5065035;28;20029;-77
2023/01/27 02:41:16;;;;;;;5.10;3.30;;;;;;;1.88;65.01;94028.19;5066492;28;20317;-78
2023/01/27 02:43:41;;;;;;;6.40;3.88;;;;;;;1.86;65.03;94023.19;5064997;28;20107;-79
2023/01/27 02:46:07;;;;;;;5.20;3.67;;;;;;;1.90;65.06;94023.16;5065828;28;20112;-77
2023/01/27 02:48:32;;;;;;;6.05;3.78;;;;;;;1.91;64.91;94024.69;5073846;28;20017;-78
2023/01/27 02:50:58;;;;;;;7.72;3.90;;;;;;;1.92;64.98;94026.22;5063164;28;20512;-79
2023/01/27 02:53:23;;;;;;;5.20;3.97;;;;;;;1.99;64.70;94035.03;5066648;28;20025;-78
2023/01/27 02:55:49;;;;;;;8.25;3.65;;;;;;;1.97;64.63;94025.78;5062617;28;20029;-79
2023/01/27 02:58:15;;;;;;;6.95;4.20;;;;;;;2.01;64.63;94032.72;5064483;28;20036;-78
2023/01/27 03:00:41;;;;;;;4.78;3.13;;;;;;;2.04;64.21;94034.59;5064755;28;20025;-79
2023/01/27 03:03:07;;;;;;;5.47;3.45;;;;;;;1.99;64.17;94029.63;5065759;28;20113;-79
2023/01/27 03:05:33;;;;;;;7.60;4.07;;;;;;;1.99;64.30;94029.63;5064420;28;20032;-79
2023/01/27 03:07:58;;;;;;;5.95;3.78;;;;;;;2.00;64.39;94024.97;5065301;28;20479;-78
2023/01/27 03:10:23;;;;;;;5.82;3.88;;;;;;;2.02;64.52;94022.63;5065931;28;20119;-77
2023/01/27 03:12:49;;;;;;;5.85;3.65;;;;;;;2.04;64.37;94026.47;5064383;28;20435;-79
2023/01/27 03:18:12;;;;;;;4.82;3.25;;;;;;;2.07;64.30;94012.13;5064009;28;20135;-78
2023/01/27 03:20:42;;;;;;;8.20;3.88;;;;;;;2.13;64.15;94007.78;5053989;28;20025;-78
2023/01/27 03:23:08;;;;;;;6.03;3.85;;;;;;;2.14;64.09;94003.13;5065820;28;20032;-79
2023/01/27 03:25:33;;;;;;;4.95;3.50;;;;;;;2.20;63.85;93996.09;5062359;28;20074;-77
2023/01/27 03:27:59;;;;;;;4.95;3.95;;;;;;;2.12;63.94;93983.75;5065226;28;20028;-77
2023/01/27 03:30:26;;;;;;;4.80;3.58;;;;;;;2.19;63.84;93985.66;5065214;28;20040;-77
2023/01/27 03:32:51;;;;;;;5.25;3.65;;;;;;;2.22;63.91;93988.31;5066224;28;20626;-78
2023/01/27 03:35:16;;;;;;;6.20;3.38;;;;;;;2.24;63.81;93994.09;5061166;28;20047;-78
2023/01/27 03:48:38;;;;;;;;;;;;;;;2.24;63.68;93964.28;5064599;28;20079;-79
2023/01/27 03:51:05;;;;;;;16.13;10.38;;;;;;;2.26;63.47;93955.72;5064569;28;20349;-78
2023/01/27 03:53:32;;;;;;;18.13;9.95;;;;;;;2.25;63.42;93963.09;5064078;28;20032;-78
2023/01/27 03:55:57;;;;;;;11.77;8.18;;;;;;;2.25;63.57;93960.38;5064254;28;20035;-77
2023/01/27 03:58:26;;;;;;;9.15;6.35;;;;;;;2.23;63.72;93960.00;5066024;28;20016;-78
2023/01/27 04:00:55;;;;;;;7.60;5.63;;;;;;;2.28;63.73;93964.97;5063967;28;20020;-78
2023/01/27 04:08:55;;;;;;;6.53;4.50;;;;;;;2.29;63.60;93977.34;5076157;28;20044;-79
2023/01/27 04:14:06;;;;;;;7.10;4.35;;;;;;;2.32;63.79;93995.53;5055044;28;20442;-79
2023/01/27 04:16:33;;;;;;;12.40;6.50;;;;;;;2.29;63.88;94007.19;5065086;28;20036;-79
2023/01/27 04:18:58;;;;;;;14.98;8.75;;;;;;;2.25;64.04;94013.84;5060323;28;20135;-79
2023/01/27 04:21:24;;;;;;;12.27;7.20;;;;;;;2.31;64.09;94026.56;5063379;28;20116;-80
2023/01/27 04:23:51;;;;;;;10.52;6.85;;;;;;;2.32;63.86;94025.38;5064173;28;20430;-77
2023/01/27 04:26:17;;;;;;;15.73;7.85;;;;;;;2.34;63.99;94022.25;5049217;28;20020;-77
2023/01/27 04:28:42;;;;;;;13.80;7.60;;;;;;;2.35;63.81;94024.59;5064303;28;20039;-78
2023/01/27 04:31:07;;;;;;;11.75;7.10;;;;;;;2.37;64.03;94035.78;5063836;28;20150;-78
2023/01/27 04:33:33;;;;;;;10.60;7.15;;;;;;;2.38;63.94;94044.69;5064846;28;20028;-78
2023/01/27 04:35:58;;;;;;;11.40;6.68;;;;;;;2.38;63.87;94055.53;5064959;28;20074;-78
2023/01/27 04:38:23;;;;;;;10.32;6.68;;;;;;;2.42;63.76;94053.56;5066780;28;20537;-79
2023/01/27 04:40:49;;;;;;;9.32;6.57;;;;;;;2.44;63.62;94051.19;5066986;28;20036;-77
2023/01/27 04:43:15;;;;;;;9.63;6.65;;;;;;;2.42;63.95;94041.94;5063527;28;20037;-77
2023/01/27 04:45:40;;;;;;;11.00;7.00;;;;;;;2.40;63.74;94039.63;5061868;28;20041;-79
2023/01/27 04:48:06;;;;;;;7.90;6.20;;;;;;;2.45;63.76;94065.53;5063446;28;20029;-79
2023/01/27 04:50:32;;;;;;;10.27;6.22;;;;;;;2.42;63.76;94050.09;5063047;28;20066;-79
2023/01/27 04:52:57;;;;;;;12.30;7.65;;;;;;;2.46;63.64;94048.06;5063026;28;20033;-78
2023/01/27 04:55:23;;;;;;;11.80;7.50;;;;;;;2.51;63.35;94036.78;5064846;28;20429;-77
2023/01/27 04:57:48;;;;;;;11.32;8.10;;;;;;;2.49;63.44;94050.00;5045650;28;20083;-78
2023/01/27 05:00:14;;;;;;;12.43;8.10;;;;;;;2.48;63.60;94072.88;5066589;28;20064;-78
2023/01/27 05:02:39;;;;;;;11.25;8.15;;;;;;;2.37;63.84;94067.56;5068212;28;20037;-77
2023/01/27 05:05:05;;;;;;;11.55;7.75;;;;;;;2.40;63.97;94051.22;5065010;28;20047;-79
2023/01/27 05:07:31;;;;;;;11.75;7.60;;;;;;;2.40;63.89;94053.19;5053311;28;20048;-79
2023/01/27 05:09:57;;;;;;;11.95;6.72;;;;;;;2.41;63.89;94057.47;5067138;28;20117;-79
2023/01/27 05:12:22;;;;;;;12.68;7.30;;;;;;;2.37;63.94;94057.47;5064915;28;20415;-78
2023/01/27 05:14:48;;;;;;;10.43;6.55;;;;;;;2.37;64.13;94057.47;5065787;28;20376;-79
2023/01/27 05:17:13;;;;;;;9.35;5.25;;;;;;;2.37;63.70;94062.91;5066643;28;20041;-79
2023/01/27 05:19:39;;;;;;;9.23;5.93;;;;;;;2.38;63.79;94052.81;5067648;28;20029;-79
2023/01/27 05:22:04;;;;;;;12.65;7.07;;;;;;;2.45;63.55;94043.84;5066996;28;20031;-78
2023/01/27 05:24:30;;;;;;;9.00;6.05;;;;;;;2.35;63.64;94057.13;5067491;28;20067;-77
2023/01/27 05:26:56;;;;;;;10.68;6.00;;;;;;;2.34;64.02;94050.16;5065773;28;20513;-80
2023/01/27 05:29:22;;;;;;;9.68;6.03;;;;;;;2.32;63.90;94035.47;5067360;28;20032;-79
2023/01/27 05:31:47;;;;;;;9.50;5.05;;;;;;;2.30;63.91;94043.25;5065089;28;20127;-77
2023/01/27 05:34:13;;;;;;;8.55;5.22;;;;;;;2.34;63.94;94033.09;5069961;28;20055;-76
2023/01/27 05:36:38;;;;;;;8.52;5.15;;;;;;;2.25;63.75;94036.31;5069777;28;20055;-76
2023/01/27 05:39:03;;;;;;;7.53;5.45;;;;;;;1.99;64.35;94026.91;5068874;28;20029;-79
2023/01/27 05:41:32;;;;;;;8.15;5.22;;;;;;;1.84;64.93;94028.25;5067930;28;20032;-76
2023/01/27 05:43:57;;;;;;;9.77;5.15;;;;;;;1.69;65.36;94026.84;5067689;28;20410;-76
2023/01/27 05:46:25;;;;;;;8.13;5.38;;;;;;;1.51;66.08;94016.94;5068742;28;20028;-79
2023/01/27 05:48:53;;;;;;;6.97;5.28;;;;;;;1.45;66.33;94020.47;5066550;28;20024;-78
2023/01/27 05:51:20;;;;;;;6.43;4.47;;;;;;;1.41;66.44;94019.72;5068170;28;20158;-80
2023/01/27 05:53:46;;;;;;;7.53;4.10;;;;;;;1.34;66.47;94020.56;5066108;28;20028;-77
2023/01/27 05:56:14;;;;;;;5.18;3.75;;;;;;;1.31;66.33;94018.63;5067649;28;20123;-75
2023/01/27 05:58:40;;;;;;;6.20;4.38;;;;;;;1.29;66.26;94021.75;5067662;28;20028;-77
2023/01/27 06:01:06;;;;;;;6.78;4.50;;;;;;;1.24;66.94;94033.00;5066659;28;20097;-76
2023/01/27 06:03:31;;;;;;;5.95;4.18;;;;;;;1.27;66.85;94039.59;5066093;28;20487;-75
2023/01/27 06:05:57;;;;;;;8.68;4.78;;;;;;;1.34;66.50;94047.66;5066529;28;20036;-76
2023/01/27 06:08:23;;;;;;;6.03;4.00;;;;;;;1.36;66.13;94047.25;5067694;28;20081;-76
2023/01/27 06:10:50;;;;;;;4.53;3.38;;;;;;;1.38;65.41;94048.41;5065095;28;20111;-78
2023/01/27 06:13:15;;;;;;;6.30;3.53;;;;;;;1.35;65.65;94037.56;5065532;28;20025;-78
2023/01/27 06:15:46;;;;;;;5.15;4.25;;;;;;;1.41;65.66;94035.97;5067357;28;20043;-77
2023/01/27 06:18:12;;;;;;;5.07;3.53;;;;;;;1.27;65.81;94039.59;5066108;28;20082;-77
2023/01/27 06:20:38;;;;;;;5.53;3.88;;;;;;;1.28;66.03;94041.13;5066465;28;20040;-76
2023/01/27 06:23:04;;;;;;;5.18;3.95;;;;;;;1.31;65.91;94034.88;5064918;28;20426;-76
2023/01/27 06:25:30;;;;;;;7.03;3.95;;;;;;;1.39;65.89;94036.38;5067590;28;20024;-76
2023/01/27 06:27:56;;;;;;;7.38;4.25;;;;;;;1.51;65.53;94054.09;5066417;28;20722;-76
2023/01/27 06:30:22;;;;;;;7.32;4.10;;;;;;;1.44;65.69;94046.03;5071238;28;20062;-78
2023/01/27 06:32:47;;;;;;;7.95;4.32;;;;;;;1.47;65.27;94053.34;5066789;28;20726;-77
2023/01/27 06:35:12;;;;;;;5.22;3.67;;;;;;;1.48;65.11;94049.47;5067023;28;20418;-76
2023/01/27 06:37:38;;;;;;;5.72;4.15;;;;;;;1.48;64.95;94050.22;5067524;28;20078;-76
2023/01/27 06:40:04;;;;;;;6.38;4.18;;;;;;;1.49;64.98;94048.28;5066456;28;20032;-77
2023/01/27 06:42:30;;;;;;;4.63;4.10;;;;;;;1.54;65.07;94047.84;5066168;28;20479;-78
2023/01/27 06:44:55;;;;;;;6.30;4.18;;;;;;;1.63;64.85;94045.47;5064752;28;20574;-78
2023/01/27 06:47:20;;;;;;;6.40;3.92;;;;;;;1.69;64.49;94056.63;5069055;28;20032;-76
2023/01/27 06:49:46;;;;;;;7.93;5.13;;;;;;;1.77;64.16;94060.81;5063885;28;20418;-77
2023/01/27 06:52:11;;;;;;;7.10;5.25;;;;;;;1.78;64.29;94051.53;5063159;28;20471;-77
2023/01/27 06:54:37;;;;;;;8.73;5.30;;;;;;;1.82;64.14;94044.88;5066818;28;20043;-80
2023/01/27 06:57:03;;;;;;;7.47;4.78;;;;;;;1.89;64.00;94054.13;5063777;28;20029;-80
2023/01/27 06:59:28;;;;;;;6.68;4.60;;;;;;;1.84;64.15;94064.25;5065881;28;20070;-78
2023/01/27 07:01:54;;;;;;;7.00;4.68;;;;;;;1.83;64.26;94062.69;5064022;28;20051;-78
2023/01/27 07:04:19;;;;;;;10.15;6.20;;;;;;;1.91;64.13;94057.97;5065626;28;20036;-79
2023/01/27 07:06:44;;;;;;;11.73;6.93;;;;;;;1.96;63.98;94064.91;5062127;28;20032;-80
2023/01/27 07:09:10;;;;;;;8.55;6.70;;;;;;;2.07;63.73;94074.47;5063646;28;20064;-77
2023/01/27 07:11:35;;;;;;;10.18;7.10;;;;;;;2.07;63.65;94071.00;5065048;28;20032;-80
2023/01/27 07:14:01;;;;;;;10.95;7.50;;;;;;;2.15;63.58;94075.16;5066539;28;20024;-78
2023/01/27 07:16:27;;;;;;;9.38;6.03;;;;;;;2.25;63.18;94070.81;5064645;28;20070;-79
2023/01/27 07:18:53;;;;;;;8.63;5.60;;;;;;;2.28;62.67;94072.69;5065300;28;20131;-78
2023/01/27 07:21:18;;;;;;;9.55;5.82;;;;;;;2.25;62.64;94060.72;5066303;28;20130;-79
2023/01/27 07:23:43;;;;;;;9.30;5.97;;;;;;;2.42;62.09;94066.34;5065147;28;20029;-79
2023/01/27 07:26:09;;;;;;;8.90;5.93;;;;;;;2.38;62.13;94069.88;5071999;28;20070;-79
2023/01/27 07:28:34;;;;;;;7.38;4.95;;;;;;;2.40;62.21;94062.09;5065761;28;20028;-79
2023/01/27 07:31:01;;;;;;;7.75;5.38;;;;;;;2.41;62.38;94062.88;5066234;28;20150;-78
2023/01/27 07:33:26;;;;;;;7.32;5.03;;;;;;;2.53;62.13;94061.56;5065775;28;20184;-78
2023/01/27 07:35:52;;;;;;;9.05;5.97;;;;;;;2.59;62.02;94065.38;5064431;28;20115;-78
2023/01/27 07:38:17;;;;;;;7.75;5.30;;;;;;;2.65;61.80;94071.91;5065987;28;20081;-79
2023/01/27 07:40:43;;;;;;;8.63;5.55;;;;;;;2.74;60.99;94066.72;5065102;28;20032;-79
2023/01/27 07:43:08;;;;;;;9.73;6.57;;;;;;;2.78;60.73;94066.69;5065427;28;20099;-78
2023/01/27 07:45:33;;;;;;;5.20;4.50;;;;;;;2.81;60.38;94068.56;5064885;28;20416;-80
2023/01/27 07:48:06;;;;;;;6.22;3.97;;;;;;;2.77;60.13;94071.34;5065578;28;20089;-78
2023/01/27 07:50:32;;;;;;;6.07;3.85;;;;;;;2.70;59.98;94067.97;5067218;28;20056;-77
2023/01/27 07:52:59;;;;;;;3.97;2.95;;;;;;;2.66;60.16;94070.72;5066727;28;20056;-78
2023/01/27 07:55:25;;;;;;;6.03;3.67;;;;;;;2.71;59.70;94067.53;5065590;28;20058;-78
2023/01/27 07:57:52;;;;;;;5.60;3.42;;;;;;;2.69;59.93;94069.13;5065163;28;20035;-80
2023/01/27 08:00:20;;;;;;;4.40;3.83;;;;;;;2.66;59.96;94068.75;5064036;28;20029;-79
2023/01/27 08:02:52;;;;;;;3.83;3.08;;;;;;;2.60;60.08;94075.06;5064523;28;20017;-80
2023/01/27 08:05:19;;;;;;;6.60;3.92;;;;;;;2.60;60.23;94075.06;5065474;28;20040;-80
2023/01/27 08:07:45;;;;;;;5.35;3.65;;;;;;;2.54;60.00;94068.53;5065291;28;20570;-78
2023/01/27 08:10:10;;;;;;;5.50;3.45;;;;;;;2.43;60.46;94068.66;5064857;28;20115;-79
2023/01/27 08:12:36;;;;;;;4.75;3.22;;;;;;;2.43;60.85;94071.38;5065345;28;20367;-80
2023/01/27 08:15:01;;;;;;;6.32;3.95;;;;;;;2.48;60.84;94059.31;5064668;28;20115;-79
2023/01/27 08:17:27;;;;;;;5.57;2.42;;;;;;;2.62;59.88;94061.84;5065440;28;20048;-79
2023/01/27 08:19:52;;;;;;;4.07;2.72;;;;;;;2.58;59.33;94063.81;5064688;28;20025;-81
2023/01/27 08:22:20;;;;;;;4.57;2.60;;;;;;;2.55;59.52;94067.34;5070044;28;20394;-78
2023/01/27 08:24:47;;;;;;;3.45;2.80;;;;;;;2.43;60.00;94071.38;5063577;28;20545;-78
2023/01/27 08:27:13;;;;;;;4.63;2.85;;;;;;;2.33;60.52;94062.16;5064952;28;20029;-79
2023/01/27 08:29:38;;;;;;;4.85;3.58;;;;;;;2.22;60.51;94072.38;5063888;28;20063;-80
2023/01/27 08:32:04;;;;;;;4.95;3.40;;;;;;;2.21;60.61;94075.50;5064918;28;20028;-80
2023/01/27 08:34:29;;;;;;;4.25;2.85;;;;;;;2.11;60.84;94080.63;5065352;28;20522;-80
2023/01/27 08:36:55;;;;;;;6.28;3.33;;;;;;;2.07;61.05;94077.19;5064045;28;20082;-78
2023/01/27 08:39:20;;;;;;;5.97;4.28;;;;;;;2.13;61.46;94077.50;5065590;28;20035;-77
2023/01/27 08:41:46;;;;;;;5.82;3.70;;;;;;;2.04;61.46;94080.69;5063174;28;20024;-79
2023/01/27 08:44:12;;;;;;;3.97;3.03;;;;;;;2.00;61.68;94084.59;5064879;28;20031;-79
2023/01/27 08:46:37;;;;;;;6.65;3.75;;;;;;;1.93;61.89;94082.72;5065597;28;20055;-79
2023/01/27 08:49:03;;;;;;;6.50;3.28;;;;;;;1.93;61.51;94084.69;5066428;28;20098;-79
2023/01/27 08:51:28;;;;;;;5.20;3.58;;;;;;;1.87;61.65;94087.06;5066759;28;20021;-81
2023/01/27 08:53:53;;;;;;;7.13;4.03;;;;;;;1.87;61.83;94084.34;5065400;28;20039;-81
2023/01/27 08:56:19;;;;;;;5.65;4.03;;;;;;;1.92;62.16;94088.56;5069367;28;20040;-80
2023/01/27 08:58:47;;;;;;;4.97;4.03;;;;;;;1.93;61.57;94073.84;5064829;28;20050;-79
2023/01/27 09:01:12;;;;;;;4.45;3.40;;;;;;;1.96;61.58;94086.59;5065165;28;20035;-79
2023/01/27 09:03:38;;;;;;;5.80;3.95;;;;;;;1.91;62.11;94093.22;5064124;28;20028;-79
2023/01/27 09:06:06;;;;;;;5.22;3.65;;;;;;;1.86;62.06;94089.00;5064700;28;20029;-80
2023/01/27 09:08:31;;;;;;;5.20;3.42;;;;;;;1.86;62.30;94085.53;5064912;28;20033;-78
2023/01/27 09:10:57;;;;;;;4.38;3.08;;;;;;;1.83;62.13;94076.22;5064134;28;20029;-80
2023/01/27 09:13:22;;;;;;;5.03;3.70;;;;;;;1.82;62.14;94072.00;5064759;28;20039;-79
2023/01/27 09:15:51;;;;;;;4.25;3.20;;;;;;;1.90;61.91;94080.06;5064189;28;20029;-78
2023/01/27 09:18:16;;;;;;;6.72;3.13;;;;;;;1.93;61.91;94071.13;5069680;28;20156;-79
2023/01/27 09:20:42;;;;;;;6.80;4.35;;;;;;;1.96;61.86;94071.09;5063880;28;20547;-79
2023/01/27 09:23:07;;;;;;;5.43;3.33;;;;;;;1.96;61.75;94079.22;5064253;28;20025;-79
2023/01/27 09:25:32;;;;;;;5.55;3.67;;;;;;;1.97;61.96;94082.72;5062586;28;20459;-80
2023/01/27 09:27:59;;;;;;;4.45;3.45;;;;;;;1.89;62.03;94078.50;5062663;28;20038;-80
2023/01/27 09:30:25;;;;;;;3.03;2.72;;;;;;;1.85;61.89;94068.50;5063280;28;20012;-80
2023/01/27 09:32:51;;;;;;;3.88;2.65;;;;;;;1.83;62.20;94072.75;5063669;28;20081;-80
2023/01/27 09:35:17;;;;;;;4.97;3.50;;;;;;;1.89;62.19;94064.97;5064196;28;20111;-79
2023/01/27 09:37:50;;;;;;;3.85;2.95;;;;;;;1.87;62.27;94059.94;5062221;28;20037;-80
2023/01/27 09:40:21;;;;;;;3.85;3.05;;;;;;;1.90;61.98;94055.69;5064048;28;20082;-81
2023/01/27 09:43:05;;;;;;;3.88;3.15;;;;;;;1.93;61.82;94052.16;5063660;28;20053;-80
2023/01/27 09:45:52;;;;;;;4.00;2.78;;;;;;;1.90;62.07;94047.56;5063366;28;20094;-80
2023/01/27 09:48:36;;;;;;;5.43;3.80;;;;;;;1.82;62.22;94044.88;5066232;28;20033;-80
2023/01/27 09:51:24;;;;;;;4.88;3.75;;;;;;;1.83;61.99;94046.41;5067250;28;20078;-79
2023/01/27 09:54:07;;;;;;;5.28;3.45;;;;;;;1.88;62.12;94041.75;5067069;28;20025;-79
2023/01/27 09:56:52;;;;;;;5.30;3.60;;;;;;;1.95;62.11;94037.03;5066352;28;20486;-79
2023/01/27 09:59:36;;;;;;;4.93;3.50;;;;;;;1.94;62.05;94040.91;5065236;28;20522;-80
2023/01/27 10:02:14;;;;;;;5.30;4.38;;;;;;;1.93;61.95;94031.22;5070708;28;20103;-80
2023/01/27 10:04:48;;;;;;;6.53;3.90;;;;;;;1.91;62.21;94030.88;5068559;28;20117;-79
2023/01/27 10:07:27;;;;;;;5.35;3.92;;;;;;;1.81;62.74;94020.91;5066711;28;20073;-81
2023/01/27 10:10:02;;;;;;;5.57;3.88;;;;;;;1.79;62.67;94024.03;5067805;28;20086;-78
2023/01/27 10:12:42;;;;;;;4.47;3.97;;;;;;;1.83;62.54;94015.84;5068347;28;20092;-79
2023/01/27 10:15:20;;;;;;;6.15;4.05;;;;;;;1.88;62.56;94012.69;5070525;28;20573;-79
2023/01/27 10:17:48;;;;;;;4.32;3.92;;;;;;;1.92;62.84;94021.56;5068331;28;20048;-79
2023/01/27 10:20:45;;;;;;;4.90;4.10;;;;;;;1.92;62.65;94016.16;5066527;28;20039;-79
2023/01/27 10:23:28;;;;;;;5.35;3.85;;;;;;;1.90;62.80;94015.78;5066534;28;20082;-79
2023/01/27 10:26:18;;;;;;;6.95;4.05;;;;;;;1.95;63.02;94009.13;5067181;28;20387;-81
2023/01/27 10:28:49;;;;;;;5.95;4.30;;;;;;;1.94;62.72;94013.03;5067263;28;20029;-81
2023/01/27 10:31:22;;;;;;;5.68;4.05;;;;;;;1.79;62.99;94010.47;5067688;28;20033;-78
2023/01/27 10:33:52;;;;;;;6.05;4.25;;;;;;;1.73;63.09;94014.78;5065277;28;20686;-79
2023/01/27 10:36:29;;;;;;;5.57;3.75;;;;;;;1.66;63.70;94011.38;5066762;28;20025;-79
2023/01/27 10:39:16;;;;;;;4.85;4.00;;;;;;;1.59;63.87;94007.56;5066699;28;20119;-80
2023/01/27 10:41:47;;;;;;;6.35;4.65;;;;;;;1.60;63.99;94011.03;5064945;28;20025;-79
2023/01/27 10:44:42;;;;;;;6.05;4.53;;;;;;;1.69;63.73;94007.88;5067006;28;20036;-80
2023/01/27 10:47:44;;;;;;;6.63;4.75;;;;;;;1.66;63.70;94017.56;5064976;28;20040;-79
2023/01/27 10:50:16;;;;;;;7.45;4.72;;;;;;;1.75;63.31;94008.97;5066327;28;20039;-80
2023/01/27 10:52:47;;;;;;;6.25;4.22;;;;;;;1.75;63.22;94000.84;5049110;28;20479;-78
2023/01/27 10:55:20;;;;;;;7.22;4.50;;;;;;;1.79;63.06;94004.28;5064149;28;20463;-78
2023/01/27 10:58:04;;;;;;;5.65;4.90;;;;;;;1.88;62.63;93996.44;5064907;28;20043;-78
2023/01/27 11:00:33;;;;;;;6.50;4.63;;;;;;;2.00;62.47;94004.03;5065752;28;20048;-82
2023/01/27 11:03:12;;;;;;;7.85;4.85;;;;;;;2.02;62.46;94007.13;5068726;28;20039;-81
2023/01/27 11:05:45;;;;;;;7.50;5.50;;;;;;;1.96;62.46;94008.75;5072069;28;20181;-82
2023/01/27 11:08:14;;;;;;;5.53;4.35;;;;;;;1.88;62.76;94001.09;5071141;28;20501;-83
2023/01/27 11:11:42;;;;;;;5.65;4.60;;;;;;;1.93;62.42;94008.78;5071138;28;20031;-77
2023/01/27 11:13:30;;;;;;;7.70;4.72;;;;;;;1.93;62.51;94008.78;5065162;28;20036;-79
2023/01/27 11:15:55;;;;;;;5.32;4.53;;;;;;;1.99;62.48;94013.34;5065560;28;20025;-81
2023/01/27 11:18:22;;;;;;;6.72;4.72;;;;;;;1.91;62.33;94000.28;5066551;28;20049;-80
2023/01/27 11:21:16;;;;;;;6.18;5.20;;;;;;;2.02;62.46;94000.94;5064463;28;20040;-81
2023/01/27 11:23:45;;;;;;;7.10;5.88;;;;;;;2.03;62.38;93992.41;5064943;28;20096;-79
2023/01/27 11:26:32;;;;;;;7.28;4.55;;;;;;;2.03;62.10;93991.63;5065683;28;20037;-80
2023/01/27 11:29:18;;;;;;;7.68;4.75;;;;;;;1.94;62.09;93999.47;5064267;28;20515;-79
2023/01/27 11:31:47;;;;;;;5.75;3.92;;;;;;;1.84;62.34;93988.34;5066517;28;20124;-80
2023/01/27 11:34:40;;;;;;;7.38;4.60;;;;;;;1.68;62.80;93988.13;5065212;28;20031;-80
2023/01/27 11:37:16;;;;;;;5.55;4.53;;;;;;;1.64;63.04;93984.69;5064382;28;20052;-81
2023/01/27 11:39:42;;;;;;;5.80;4.63;;;;;;;1.66;63.15;93979.63;5064314;28;20490;-81
2023/01/27 11:42:08;;;;;;;5.22;4.32;;;;;;;1.61;63.53;93974.66;5065652;28;20025;-79
2023/01/27 11:44:34;;;;;;;8.13;5.47;;;;;;;1.56;64.01;93975.09;5064663;28;20036;-80
2023/01/27 11:47:01;;;;;;;6.85;4.82;;;;;;;1.54;63.92;93977.44;5064899;28;20024;-79
2023/01/27 11:49:30;;;;;;;7.15;5.03;;;;;;;1.54;63.97;93988.25;5064138;28;20447;-80
2023/01/27 11:52:08;;;;;;;7.68;5.28;;;;;;;1.55;64.05;93987.13;5065153;28;20032;-81
2023/01/27 11:54:55;;;;;;;6.95;5.60;;;;;;;1.64;64.20;93979.25;5063742;28;20032;-80
2023/01/27 11:57:23;;;;;;;11.13;6.13;;;;;;;1.64;64.24;93975.78;5064511;28;20020;-80
2023/01/27 11:59:52;;;;;;;13.52;7.03;;;;;;;1.60;64.10;93967.69;5064891;28;20036;-79
2023/01/27 12:02:41;;;;;;;8.77;5.32;;;;;;;1.57;64.49;93968.50;5064170;28;20024;-80
2023/01/27 12:05:14;;;;;;;10.38;6.30;;;;;;;1.40;65.07;93972.16;5068511;28;20088;-79
2023/01/27 12:07:48;;;;;;;8.15;5.53;;;;;;;1.34;65.07;93977.22;5064787;28;20451;-79
2023/01/27 12:10:23;;;;;;;9.43;5.80;;;;;;;1.36;65.51;93977.59;5064525;28;20068;-79
2023/01/27 12:12:48;;;;;;;6.95;4.97;;;;;;;1.36;65.48;93971.41;5069223;28;20119;-79
2023/01/27 12:15:15;;;;;;;5.38;4.03;;;;;;;1.31;65.72;93976.09;5066157;28;20096;-79
2023/01/27 12:17:44;;;;;;;6.82;4.57;;;;;;;1.35;65.76;93975.28;5064464;28;20066;-80
2023/01/27 12:20:38;;;;;;;6.75;4.80;;;;;;;1.44;65.67;93978.31;5064604;28;20091;-78